Time;durP1;ratioP1;P1;durP2;ratioP2;P2;SDS_P1;SDS_P2;PMS_P1;PMS_P2;Temp;Humidity;BMP_temperature;BMP_pressure;BME280_temperature;BME280_humidity;BME280_pressure;Samples;Min_cycle;Max_cycle;Signal;HPM_P1;HPM_P2
2022/05/25 00:02:27;;;;;;;7.93;5.60;;;;;;;9.52;96.97;101061.50;6497568;23;20004;-79
2022/05/25 00:04:58;;;;;;;11.15;5.25;;;;;;;9.54;96.94;101076.22;6497386;23;20378;-79
2022/05/25 00:07:30;;;;;;;8.20;5.10;;;;;;;9.51;97.10;101077.97;6496574;23;20091;-79
2022/05/25 00:10:02;;;;;;;8.97;5.27;;;;;;;9.37;97.31;101076.28;6497993;23;20004;-79
2022/05/25 00:12:34;;;;;;;6.72;5.55;;;;;;;9.41;97.73;101080.59;6497233;23;20171;-79
2022/05/25 00:15:07;;;;;;;9.60;6.53;;;;;;;9.31;98.18;101082.34;6497725;23;20004;-80
2022/05/25 00:17:38;;;;;;;10.00;6.80;;;;;;;9.31;98.69;101076.31;6497104;23;20430;-79
2022/05/25 00:20:10;;;;;;;9.43;5.90;;;;;;;9.35;99.05;101085.81;6496803;23;20028;-79
2022/05/25 00:22:45;;;;;;;8.23;6.07;;;;;;;9.33;98.98;101084.97;6496494;23;20418;-78
2022/05/25 00:25:19;;;;;;;7.15;6.40;;;;;;;9.31;99.30;101081.50;6497059;23;20098;-78
2022/05/25 00:27:51;;;;;;;12.75;7.20;;;;;;;9.26;99.18;101085.84;6497185;23;20035;-78
2022/05/25 00:30:25;;;;;;;7.70;6.10;;;;;;;9.29;99.35;101085.84;6496866;23;20032;-79
2022/05/25 00:32:58;;;;;;;10.48;8.18;;;;;;;9.25;99.68;101089.31;6497364;23;20008;-79
2022/05/25 00:35:32;;;;;;;10.45;6.90;;;;;;;9.20;99.51;101089.31;6497696;23;20540;-79
2022/05/25 00:38:05;;;;;;;11.20;7.20;;;;;;;9.18;99.66;101091.06;6470033;23;20004;-78
2022/05/25 00:40:40;;;;;;;10.40;7.47;;;;;;;9.16;100.00;101086.72;6496628;23;20032;-78
2022/05/25 00:43:13;;;;;;;10.60;8.40;;;;;;;9.15;100.00;101087.63;6470666;23;20004;-79
2022/05/25 00:45:49;;;;;;;8.43;7.43;;;;;;;9.12;100.00;101085.88;6469559;23;20508;-78
2022/05/25 00:48:24;;;;;;;8.30;7.50;;;;;;;9.07;100.00;101093.69;6496625;23;20020;-78
2022/05/25 00:51:15;;;;;;;10.65;8.57;;;;;;;9.04;100.00;101088.47;6496702;23;20331;-78
2022/05/25 00:53:55;;;;;;;15.68;9.02;;;;;;;9.00;100.00;101102.38;6496655;23;20311;-78
2022/05/25 00:56:29;;;;;;;11.18;8.32;;;;;;;8.97;100.00;101102.38;6496823;23;20007;-79
2022/05/25 00:59:07;;;;;;;12.63;8.77;;;;;;;8.97;100.00;101096.28;6469834;23;20008;-78
2022/05/25 01:01:41;;;;;;;11.90;9.13;;;;;;;8.93;100.00;101092.84;6496908;23;20012;-78
2022/05/25 01:04:14;;;;;;;13.57;9.25;;;;;;;8.92;100.00;101104.13;6496142;23;20375;-79
2022/05/25 01:07:07;;;;;;;9.57;8.57;;;;;;;8.90;100.00;101108.44;6496546;23;20000;-79
2022/05/25 01:10:05;;;;;;;10.48;9.25;;;;;;;8.89;100.00;101106.72;6496877;23;20011;-78
2022/05/25 01:12:42;;;;;;;10.23;9.18;;;;;;;8.81;100.00;101111.91;6496916;23;20035;-79
2022/05/25 01:15:44;;;;;;;16.33;9.32;;;;;;;8.81;100.00;101113.66;6497282;23;20008;-79
2022/05/25 01:18:26;;;;;;;11.95;8.80;;;;;;;8.83;100.00;101117.13;6496534;23;20062;-78
2022/05/25 01:21:05;;;;;;;14.07;9.97;;;;;;;8.75;100.00;101112.78;6496183;23;20004;-77
2022/05/25 01:23:58;;;;;;;11.30;8.85;;;;;;;8.71;100.00;101111.06;6496082;23;20008;-79
2022/05/25 01:26:32;;;;;;;12.70;10.10;;;;;;;8.69;100.00;101117.09;6496793;23;20127;-79
2022/05/25 01:29:07;;;;;;;13.48;10.50;;;;;;;8.65;100.00;101113.66;6496694;23;20040;-78
2022/05/25 01:31:59;;;;;;;11.30;9.88;;;;;;;8.67;100.00;101114.50;6496579;23;20012;-79
2022/05/25 01:34:51;;;;;;;12.27;10.18;;;;;;;8.61;100.00;101116.25;6495998;23;20004;-78
2022/05/25 01:37:41;;;;;;;15.45;10.43;;;;;;;8.62;100.00;101111.03;6496628;23;20091;-78
2022/05/25 01:40:24;;;;;;;12.45;10.05;;;;;;;8.55;100.00;101117.97;6495769;23;20022;-79
2022/05/25 01:42:59;;;;;;;;;;;;;;;8.51;100.00;101123.16;6497159;23;20046;-78
2022/05/25 01:45:36;;;;;;;16.58;11.23;;;;;;;8.53;100.00;101111.91;6469851;23;19915;-79
2022/05/25 01:48:11;;;;;;;12.82;10.48;;;;;;;8.55;100.00;101125.78;6497014;23;20016;-78
2022/05/25 01:50:49;;;;;;;15.20;11.65;;;;;;;8.54;100.00;101123.16;6468888;23;20392;-78
2022/05/25 01:53:26;;;;;;;13.07;10.32;;;;;;;8.49;100.00;101124.91;6496256;23;20079;-79
2022/05/25 01:56:03;;;;;;;16.77;11.38;;;;;;;8.52;100.00;101122.31;6496854;23;20326;-80
2022/05/25 01:58:40;;;;;;;12.35;10.57;;;;;;;8.50;100.00;101122.31;6497017;23;20012;-81
2022/05/25 02:01:12;;;;;;;12.02;10.77;;;;;;;8.43;100.00;101119.66;6469718;23;20367;-80
2022/05/25 02:06:59;;;;;;;16.58;10.85;;;;;;;8.39;100.00;101122.25;6496504;23;20016;-77
2022/05/25 02:09:59;;;;;;;15.52;10.55;;;;;;;8.31;100.00;101120.50;6469317;23;20091;-78
2022/05/25 02:12:50;;;;;;;11.55;10.32;;;;;;;8.34;100.00;101121.38;6495712;23;20004;-80
2022/05/25 02:15:43;;;;;;;12.13;10.95;;;;;;;8.36;100.00;101124.84;6496219;23;20416;-80
2022/05/25 02:18:55;;;;;;;14.43;10.55;;;;;;;8.30;100.00;101130.00;6468902;23;20008;-80
2022/05/25 02:21:59;;;;;;;13.98;11.10;;;;;;;8.27;100.00;101130.00;6495918;23;20000;-79
2022/05/25 02:24:42;;;;;;;15.02;11.38;;;;;;;8.26;100.00;101123.09;6496939;23;20061;-79
2022/05/25 02:27:25;;;;;;;;;;;;;;;8.20;100.00;101133.47;6499336;23;20046;-80
2022/05/25 02:30:01;;;;;;;15.45;12.23;;;;;;;8.26;100.00;101124.81;6472113;23;19914;-79
2022/05/25 02:32:45;;;;;;;13.20;10.65;;;;;;;8.22;100.00;101131.72;6498096;23;20008;-78
2022/05/25 02:35:17;;;;;;;13.85;11.13;;;;;;;8.21;100.00;101130.88;6498027;23;20000;-78
2022/05/25 02:37:56;;;;;;;12.77;11.20;;;;;;;8.20;100.00;101141.25;6497599;23;20154;-79
2022/05/25 02:40:28;;;;;;;15.85;11.15;;;;;;;8.20;100.00;101136.06;6497150;23;20035;-79
2022/05/25 02:42:59;;;;;;;12.88;11.05;;;;;;;8.20;100.00;101147.31;6497560;23;20043;-79
2022/05/25 02:45:31;;;;;;;13.00;11.60;;;;;;;8.20;100.00;101138.66;6497600;23;20010;-80
2022/05/25 02:48:03;;;;;;;15.47;10.80;;;;;;;8.19;100.00;101144.72;6496392;23;20167;-80
2022/05/25 02:50:35;;;;;;;13.88;10.77;;;;;;;8.12;100.00;101151.63;6497664;23;20434;-78
2022/05/25 02:53:06;;;;;;;14.50;10.63;;;;;;;8.10;100.00;101150.75;6497730;23;20105;-79
2022/05/25 02:55:38;;;;;;;11.27;10.13;;;;;;;8.09;100.00;101146.41;6497732;23;20497;-80
2022/05/25 02:58:10;;;;;;;11.90;9.95;;;;;;;8.09;100.00;101151.59;6498084;23;20024;-80
2022/05/25 03:00:42;;;;;;;10.77;9.07;;;;;;;8.12;100.00;101155.94;6497841;23;20034;-78
2022/05/25 03:03:13;;;;;;;17.67;10.70;;;;;;;8.03;100.00;101156.78;6498495;23;20318;-79
2022/05/25 03:05:45;;;;;;;11.90;9.47;;;;;;;8.04;100.00;101158.50;6498724;23;20034;-77
2022/05/25 03:08:16;;;;;;;12.33;9.57;;;;;;;7.99;100.00;101153.31;6498982;23;20008;-78
2022/05/25 03:10:48;;;;;;;14.23;8.87;;;;;;;8.02;100.00;101157.66;6497629;23;20012;-79
2022/05/25 03:13:19;;;;;;;17.03;9.97;;;;;;;7.93;100.00;101160.19;6499316;23;20000;-79
2022/05/25 03:15:51;;;;;;;12.53;9.77;;;;;;;7.92;100.00;101168.84;6497855;23;20010;-78
2022/05/25 03:18:22;;;;;;;17.80;10.23;;;;;;;7.87;100.00;101170.56;6498244;23;20042;-78
2022/05/25 03:20:54;;;;;;;15.70;10.00;;;;;;;7.87;100.00;101165.38;6497447;23;20075;-79
2022/05/25 03:23:25;;;;;;;14.30;10.27;;;;;;;7.87;100.00;101163.63;6497145;23;20008;-79
2022/05/25 03:25:56;;;;;;;15.37;9.93;;;;;;;7.88;100.00;101160.19;6496892;23;19996;-79
2022/05/25 03:28:28;;;;;;;15.77;10.33;;;;;;;7.84;100.00;101168.78;6496965;23;20087;-79
2022/05/25 03:30:59;;;;;;;16.37;10.50;;;;;;;7.81;100.00;101167.06;6497587;23;20342;-79
2022/05/25 03:33:31;;;;;;;11.77;8.97;;;;;;;7.81;100.00;101166.22;6497776;23;20426;-78
2022/05/25 03:36:04;;;;;;;12.88;10.00;;;;;;;7.81;100.00;101171.41;6497080;23;20175;-78
2022/05/25 03:38:36;;;;;;;13.38;9.25;;;;;;;7.78;100.00;101171.38;6497827;23;20018;-78
2022/05/25 03:41:08;;;;;;;;;;;;;;;7.74;100.00;101180.00;6498739;23;20011;-78
2022/05/25 03:43:39;;;;;;;13.05;9.45;;;;;;;7.79;100.00;101181.78;6497504;23;19915;-78
2022/05/25 03:46:10;;;;;;;11.60;9.37;;;;;;;7.76;100.00;101189.53;6496989;23;20054;-77
2022/05/25 03:48:42;;;;;;;13.23;9.70;;;;;;;7.75;100.00;101186.94;6496621;22;20016;-78
2022/05/25 03:51:13;;;;;;;16.60;9.93;;;;;;;7.71;100.00;101196.44;6496992;23;20011;-78
2022/05/25 03:53:44;;;;;;;10.63;9.40;;;;;;;7.73;100.00;101191.22;6496860;23;20087;-79
2022/05/25 03:56:16;;;;;;;12.13;8.83;;;;;;;7.77;100.00;101193.00;6496708;23;20652;-79
2022/05/25 03:58:48;;;;;;;12.50;9.07;;;;;;;7.72;100.00;101197.31;6497092;23;20004;-78
2022/05/25 04:01:19;;;;;;;16.67;9.93;;;;;;;7.74;100.00;101200.78;6497125;23;20077;-78
2022/05/25 04:03:51;;;;;;;12.53;9.50;;;;;;;7.76;100.00;101193.84;6496838;23;20069;-79
2022/05/25 04:06:22;;;;;;;15.83;9.03;;;;;;;7.76;100.00;101194.75;6496891;23;20008;-79
2022/05/25 04:08:54;;;;;;;12.00;8.83;;;;;;;7.77;100.00;101212.03;6498228;23;20010;-78
2022/05/25 04:11:25;;;;;;;11.33;9.20;;;;;;;7.77;100.00;101206.84;6444423;23;20023;-79
2022/05/25 04:13:57;;;;;;;17.70;9.50;;;;;;;7.79;100.00;101210.34;6496038;23;20493;-78
2022/05/25 04:16:29;;;;;;;13.37;9.77;;;;;;;7.81;100.00;101215.53;6496657;23;20007;-79
2022/05/25 04:19:01;;;;;;;13.18;8.63;;;;;;;7.81;100.00;101210.34;6496841;23;20004;-79
2022/05/25 04:21:34;;;;;;;10.00;8.43;;;;;;;7.83;100.00;101206.88;6496491;23;20019;-79
2022/05/25 04:24:06;;;;;;;16.70;8.98;;;;;;;7.87;100.00;101215.53;6497243;23;20011;-80
2022/05/25 04:26:37;;;;;;;17.10;9.20;;;;;;;7.89;100.00;101207.75;6496948;23;20008;-78
2022/05/25 04:29:09;;;;;;;13.57;8.63;;;;;;;7.92;100.00;101212.97;6470198;23;20016;-79
2022/05/25 04:31:40;;;;;;;13.50;7.77;;;;;;;7.93;100.00;101217.31;6497737;23;20015;-79
2022/05/25 04:34:13;;;;;;;17.13;9.07;;;;;;;7.96;100.00;101213.00;6496786;23;20014;-78
2022/05/25 04:36:45;;;;;;;15.32;9.38;;;;;;;8.00;100.00;101214.75;6496872;23;20335;-79
2022/05/25 04:39:16;;;;;;;13.43;8.63;;;;;;;8.02;100.00;101209.56;6496886;23;20004;-79
2022/05/25 04:41:47;;;;;;;13.53;8.63;;;;;;;8.06;100.00;101219.09;6494671;23;20137;-79
2022/05/25 04:44:19;;;;;;;12.53;7.20;;;;;;;8.14;100.00;101220.00;6496819;23;20507;-79
2022/05/25 04:46:50;;;;;;;12.87;8.53;;;;;;;8.18;100.00;101215.69;6497938;23;20050;-80
2022/05/25 04:49:25;;;;;;;19.73;9.40;;;;;;;8.23;100.00;101224.38;6495762;23;20038;-80
2022/05/25 04:51:56;;;;;;;13.45;8.23;;;;;;;8.27;100.00;101222.66;6494403;23;20011;-77
2022/05/25 04:54:28;;;;;;;16.80;8.87;;;;;;;8.31;100.00;101225.25;6496671;23;20107;-79
2022/05/25 04:59:51;;;;;;;13.68;7.43;;;;;;;8.44;100.00;101225.34;6496125;23;20016;-79
2022/05/25 05:02:22;;;;;;;;;;;;;;;8.45;100.00;101227.94;6496995;23;20004;-80
2022/05/25 05:04:53;;;;;;;14.73;8.05;;;;;;;8.56;100.00;101230.56;6496131;23;19934;-79
2022/05/25 05:07:33;;;;;;;14.20;7.53;;;;;;;8.62;100.00;101240.13;6496535;23;20004;-79
2022/05/25 05:10:06;;;;;;;11.40;7.20;;;;;;;8.71;100.00;101240.13;6496416;23;20087;-78
2022/05/25 05:12:37;;;;;;;22.60;7.85;;;;;;;8.79;100.00;101237.53;6495860;23;20035;-78
2022/05/25 05:15:10;;;;;;;10.93;6.63;;;;;;;8.88;100.00;101243.63;6495393;23;20000;-78
2022/05/25 05:17:41;;;;;;;11.48;6.47;;;;;;;8.93;100.00;101233.22;6495993;23;20011;-80
2022/05/25 05:20:13;;;;;;;12.00;7.07;;;;;;;9.02;100.00;101237.59;6496299;23;20011;-81
2022/05/25 05:22:44;;;;;;;8.93;6.57;;;;;;;9.08;100.00;101230.66;6495880;23;20004;-80
2022/05/25 05:25:16;;;;;;;14.73;6.97;;;;;;;9.15;100.00;101238.47;6495539;23;20004;-80
2022/05/25 05:27:48;;;;;;;10.17;5.60;;;;;;;9.23;100.00;101231.53;6496066;23;20023;-81
2022/05/25 05:30:22;;;;;;;20.93;6.70;;;;;;;9.27;100.00;101225.44;6496136;23;20038;-80
2022/05/25 05:32:53;;;;;;;14.48;6.78;;;;;;;9.34;100.00;101235.00;6498963;23;20235;-79
2022/05/25 05:35:28;;;;;;;11.07;6.50;;;;;;;9.43;100.00;101232.38;6495903;23;20074;-80
2022/05/25 05:37:59;;;;;;;15.55;6.28;;;;;;;9.51;100.00;101229.75;6495857;23;20453;-79
2022/05/25 05:40:31;;;;;;;8.07;6.13;;;;;;;9.55;100.00;101228.91;6495743;23;20008;-80
2022/05/25 05:43:04;;;;;;;14.20;6.40;;;;;;;9.60;100.00;101227.16;6496744;23;20004;-79
2022/05/25 05:45:40;;;;;;;11.70;6.68;;;;;;;9.65;100.00;101209.78;6496443;23;20150;-79
2022/05/25 05:48:21;;;;;;;12.60;6.53;;;;;;;9.77;100.00;101221.03;6495535;23;20016;-78
2022/05/25 05:50:57;;;;;;;9.18;6.53;;;;;;;9.82;99.81;101233.19;6496081;23;20008;-79
2022/05/25 05:53:28;;;;;;;19.25;7.25;;;;;;;9.92;99.48;101226.22;6496238;23;20473;-78
2022/05/25 05:56:01;;;;;;;14.37;6.40;;;;;;;9.96;99.23;101216.66;6496169;23;20011;-78
2022/05/25 05:58:32;;;;;;;13.60;7.55;;;;;;;10.06;98.85;101223.53;6496689;23;20296;-79
2022/05/25 06:01:04;;;;;;;11.63;6.70;;;;;;;10.18;98.83;101225.25;6497541;23;20057;-78
2022/05/25 06:03:35;;;;;;;14.00;7.43;;;;;;;10.17;97.80;101242.59;6498477;23;20007;-79
2022/05/25 06:06:07;;;;;;;13.57;6.17;;;;;;;10.30;97.58;101243.44;6497898;23;20069;-80
2022/05/25 06:08:39;;;;;;;15.43;6.18;;;;;;;10.37;97.23;101239.13;6497879;23;20008;-79
2022/05/25 06:11:10;;;;;;;13.90;6.90;;;;;;;10.47;96.73;101232.13;6500310;23;20071;-80
2022/05/25 06:13:43;;;;;;;11.27;5.80;;;;;;;10.51;96.07;101245.13;6499486;23;20011;-80
2022/05/25 06:22:00;;;;;;;14.13;6.45;;;;;;;10.66;94.57;101252.00;6497844;23;20079;-81
2022/05/25 06:24:37;;;;;;;10.02;6.40;;;;;;;10.75;94.10;101257.16;6498075;23;20008;-81
2022/05/25 06:27:11;;;;;;;15.50;6.75;;;;;;;10.94;94.34;101259.63;6511067;23;20068;-78
2022/05/25 06:29:47;;;;;;;12.95;6.97;;;;;;;11.11;94.06;101267.34;6511002;23;20052;-80
2022/05/25 06:32:21;;;;;;;14.45;7.47;;;;;;;11.21;92.12;101270.75;6499058;23;20360;-79
2022/05/25 06:34:52;;;;;;;12.43;6.78;;;;;;;11.49;91.98;101263.56;6499733;23;20004;-80
2022/05/25 06:37:25;;;;;;;19.77;7.97;;;;;;;11.56;90.49;101273.09;6497506;23;20085;-79
2022/05/25 06:39:56;;;;;;;;;;;;;;;11.63;89.45;101287.78;6471020;23;20019;-79
2022/05/25 06:42:27;;;;;;;18.33;9.13;;;;;;;11.74;89.07;101272.03;6498573;23;19912;-79
2022/05/25 06:44:59;;;;;;;17.07;8.30;;;;;;;11.90;89.25;101272.75;6499553;23;20247;-78
2022/05/25 06:47:32;;;;;;;11.27;7.50;;;;;;;12.13;87.68;101284.72;6497301;23;20008;-79
2022/05/25 06:50:05;;;;;;;13.95;8.95;;;;;;;12.18;87.16;101286.38;6497597;23;20016;-78
2022/05/25 06:52:36;;;;;;;;;;;;;;;12.51;87.06;101283.38;6497819;23;20011;-79
2022/05/25 06:55:08;;;;;;;21.48;11.15;;;;;;;12.38;85.45;101282.66;6497752;23;19908;-79
2022/05/25 06:57:40;;;;;;;12.83;9.07;;;;;;;12.35;85.69;101282.75;6499759;23;20012;-79
2022/05/25 07:00:12;;;;;;;17.48;10.25;;;;;;;12.64;84.88;101291.94;6502102;23;20024;-79
2022/05/25 07:02:44;;;;;;;17.38;9.43;;;;;;;12.61;83.70;101284.16;6498609;23;20385;-81
2022/05/25 07:05:15;;;;;;;17.90;9.10;;;;;;;12.72;84.37;101297.97;6497853;23;20008;-81
2022/05/25 07:07:46;;;;;;;16.63;9.53;;;;;;;12.42;83.30;101305.28;6498229;23;20008;-79
2022/05/25 07:10:18;;;;;;;15.50;8.77;;;;;;;12.48;83.60;101307.84;6496762;23;20012;-81
2022/05/25 07:12:49;;;;;;;10.73;8.00;;;;;;;12.55;83.95;101295.53;6470888;23;20018;-80
2022/05/25 07:15:21;;;;;;;14.37;8.77;;;;;;;12.83;82.88;101297.78;6497581;23;20004;-79
2022/05/25 07:17:52;;;;;;;15.03;8.57;;;;;;;12.62;83.18;101305.03;6497494;23;20008;-80
2022/05/25 07:20:23;;;;;;;13.57;8.53;;;;;;;12.51;83.99;101317.38;6497403;23;20452;-80
2022/05/25 07:22:55;;;;;;;20.73;9.30;;;;;;;12.52;84.62;101313.88;6498341;23;20069;-80
2022/05/25 07:25:26;;;;;;;13.03;9.07;;;;;;;12.60;83.70;101314.66;6499168;23;20028;-81
2022/05/25 07:27:58;;;;;;;14.60;8.83;;;;;;;12.59;84.47;101311.19;6502819;23;20008;-80
2022/05/25 07:30:32;;;;;;;14.57;9.47;;;;;;;12.64;83.86;101316.38;6499047;23;20016;-80
2022/05/25 07:33:05;;;;;;;15.18;10.55;;;;;;;12.56;82.96;101315.59;6501975;23;20331;-79
2022/05/25 07:35:37;;;;;;;16.30;9.02;;;;;;;12.86;83.11;101318.69;6499888;23;20057;-81
2022/05/25 07:38:09;;;;;;;17.13;8.70;;;;;;;13.22;82.86;101317.28;6498418;23;20012;-79
2022/05/25 07:40:42;;;;;;;12.37;8.70;;;;;;;13.14;81.31;101324.41;6498654;23;20198;-79
2022/05/25 07:43:16;;;;;;;14.38;9.00;;;;;;;13.19;80.83;101321.72;6470645;23;20008;-80
2022/05/25 07:45:47;;;;;;;11.18;8.10;;;;;;;13.07;80.92;101320.13;6497111;23;20004;-80
2022/05/25 07:48:19;;;;;;;9.23;7.87;;;;;;;13.08;81.78;101320.09;6496888;23;20040;-80
2022/05/25 07:50:50;;;;;;;14.20;7.53;;;;;;;13.40;81.07;101318.78;6497957;23;20050;-78
2022/05/25 07:56:12;;;;;;;13.30;7.57;;;;;;;13.40;79.78;101325.78;6497579;23;20749;-79
2022/05/25 07:58:44;;;;;;;10.97;8.40;;;;;;;13.63;79.22;101333.25;6498785;23;20008;-79
2022/05/25 08:05:43;;;;;;;11.03;7.10;;;;;;;13.88;78.80;101328.47;6497326;23;20012;-80
2022/05/25 08:07:05;;;;;;;13.10;5.63;;;;;;;14.26;75.39;101332.13;6497778;23;20011;-81
2022/05/25 08:09:37;;;;;;;14.77;5.00;;;;;;;14.49;74.58;101326.44;6502914;23;20071;-81
2022/05/25 08:12:10;;;;;;;10.90;4.87;;;;;;;14.29;74.53;101337.31;6504087;23;20004;-81
2022/05/25 08:14:41;;;;;;;8.18;4.50;;;;;;;14.35;74.81;101337.19;6497361;23;20883;-80
2022/05/25 08:17:13;;;;;;;6.57;4.53;;;;;;;14.47;73.97;101343.94;6496816;23;20038;-79
2022/05/25 08:19:44;;;;;;;8.88;5.22;;;;;;;14.46;73.80;101331.75;6496761;23;20078;-83
2022/05/25 08:22:17;;;;;;;9.27;5.77;;;;;;;14.51;73.48;101347.38;6497816;23;20090;-82
2022/05/25 08:24:49;;;;;;;11.27;5.80;;;;;;;14.78;74.09;101343.38;6496899;23;20008;-81
2022/05/25 08:27:20;;;;;;;8.13;4.23;;;;;;;14.66;73.04;101327.88;6498048;23;20053;-81
2022/05/25 08:29:51;;;;;;;9.53;4.87;;;;;;;14.82;72.61;101339.75;6496830;23;20082;-82
2022/05/25 08:32:23;;;;;;;9.83;4.23;;;;;;;14.83;72.32;101323.13;6497979;23;20066;-81
2022/05/25 08:34:55;;;;;;;9.48;3.92;;;;;;;14.81;71.96;101324.03;6497203;23;20004;-80
2022/05/25 08:37:26;;;;;;;11.80;4.33;;;;;;;15.02;72.04;101310.47;6496274;23;20000;-79
2022/05/25 08:39:57;;;;;;;7.03;3.67;;;;;;;15.25;71.19;101315.16;6501326;23;20629;-80
2022/05/25 08:42:33;;;;;;;11.73;5.33;;;;;;;15.24;69.61;101318.69;6498022;23;20008;-81
2022/05/25 08:45:05;;;;;;;9.95;3.60;;;;;;;15.42;70.32;101316.50;6497147;23;20004;-80
2022/05/25 08:47:44;;;;;;;10.48;4.13;;;;;;;15.59;69.38;101321.38;6496285;23;20031;-81
2022/05/25 08:50:16;;;;;;;8.27;3.65;;;;;;;15.67;67.92;101312.38;6495984;23;20067;-82
2022/05/25 08:52:47;;;;;;;7.40;3.50;;;;;;;15.68;65.99;101310.59;6496985;23;20011;-80
2022/05/25 08:55:34;;;;;;;9.80;3.77;;;;;;;15.96;66.17;101316.03;6496813;23;20456;-81
2022/05/25 08:58:07;;;;;;;8.27;3.03;;;;;;;15.94;63.61;101325.75;6499421;23;20059;-79
2022/05/25 09:00:41;;;;;;;5.80;2.95;;;;;;;15.89;62.38;101322.38;6500809;23;20011;-79
2022/05/25 09:03:36;;;;;;;7.43;2.72;;;;;;;16.35;62.98;101314.97;6499156;23;20012;-80
2022/05/25 09:06:36;;;;;;;8.88;3.20;;;;;;;16.68;61.33;101309.63;6499187;23;20034;-79
2022/05/25 09:09:37;;;;;;;9.93;4.20;;;;;;;17.02;62.57;101320.03;6401502;23;20013;-79
2022/05/25 09:12:20;;;;;;;6.57;2.60;;;;;;;17.10;59.97;101309.28;6402014;23;20017;-81
2022/05/25 09:14:56;;;;;;;7.45;2.90;;;;;;;17.16;58.17;101313.47;6401284;23;20014;-79
2022/05/25 09:17:58;;;;;;;6.55;2.90;;;;;;;17.54;59.10;101327.19;6399905;23;20060;-80
2022/05/25 09:20:42;;;;;;;5.88;2.60;;;;;;;17.60;57.57;101322.56;6399058;23;20017;-80
2022/05/25 09:23:15;;;;;;;3.38;2.35;;;;;;;17.48;55.43;101321.22;6399539;23;20009;-82
2022/05/25 09:25:46;;;;;;;4.80;2.10;;;;;;;16.94;54.88;101329.97;6399745;23;20432;-80
2022/05/25 09:28:28;;;;;;;10.50;2.73;;;;;;;16.81;54.41;101339.09;6399494;23;20048;-78
2022/05/25 09:31:02;;;;;;;3.17;2.10;;;;;;;17.11;54.68;101339.97;6399592;23;20017;-80
2022/05/25 09:33:41;;;;;;;5.55;2.38;;;;;;;17.44;54.96;101332.75;6399837;23;20017;-80
2022/05/25 09:36:21;;;;;;;9.10;2.60;;;;;;;17.20;52.66;101337.03;6399264;23;20073;-80
2022/05/25 09:39:21;;;;;;;6.97;2.33;;;;;;;17.62;54.81;101326.00;6399289;23;20056;-79
2022/05/25 09:41:56;;;;;;;6.45;2.13;;;;;;;17.64;52.32;101334.72;6399480;23;20811;-81
2022/05/25 09:44:29;;;;;;;4.70;1.85;;;;;;;17.49;53.83;101330.81;6399475;23;20732;-79
2022/05/25 09:47:05;;;;;;;6.10;1.40;;;;;;;17.29;51.34;101335.88;6482548;23;20077;-79
2022/05/25 09:49:48;;;;;;;4.93;2.00;;;;;;;17.13;52.29;101343.44;6496084;23;20062;-81
2022/05/25 09:52:30;;;;;;;6.85;1.23;;;;;;;17.26;52.77;101343.91;6496393;23;20365;-79
2022/05/25 09:55:14;;;;;;;4.13;2.05;;;;;;;17.18;50.74;101341.50;6495978;23;20448;-79
2022/05/25 09:57:59;;;;;;;4.53;1.40;;;;;;;17.45;51.21;101338.88;6495559;23;20018;-80
2022/05/25 10:00:37;;;;;;;4.75;1.10;;;;;;;18.52;47.39;101365.97;6495860;23;20502;-81
2022/05/25 10:03:13;;;;;;;4.60;1.58;;;;;;;19.67;43.83;101352.72;6495865;23;20047;-79
2022/05/25 10:05:59;;;;;;;4.88;1.50;;;;;;;21.24;41.31;101354.59;6496167;23;20010;-79
2022/05/25 10:08:36;;;;;;;4.85;1.73;;;;;;;21.52;38.88;101351.44;6496095;23;20108;-80
2022/05/25 10:11:31;;;;;;;2.53;1.30;;;;;;;22.43;38.94;101343.28;6495712;23;20031;-81
2022/05/25 10:14:22;;;;;;;5.35;1.45;;;;;;;23.05;37.17;101359.38;6496368;23;20012;-82
2022/05/25 10:17:05;;;;;;;4.80;1.38;;;;;;;22.72;36.89;101347.88;6496573;23;20000;-81
2022/05/25 10:19:50;;;;;;;3.80;1.50;;;;;;;22.85;35.58;101366.66;6495465;23;20079;-79
2022/05/25 10:22:37;;;;;;;4.32;1.50;;;;;;;23.43;35.27;101351.06;6495444;23;20038;-79
2022/05/25 10:25:20;;;;;;;7.20;1.52;;;;;;;22.74;35.53;101356.63;6495861;23;20047;-80
2022/05/25 10:27:56;;;;;;;3.20;1.38;;;;;;;22.06;37.02;101350.50;6495436;23;20004;-79
2022/05/25 10:36:46;;;;;;;2.80;1.08;;;;;;;21.75;38.64;101330.84;6497007;23;20591;-80
2022/05/25 10:39:26;;;;;;;3.53;1.60;;;;;;;20.79;38.80;101332.00;6496069;23;20437;-80
2022/05/25 10:42:23;;;;;;;3.75;1.50;;;;;;;20.26;40.89;101334.34;6496703;23;20008;-80
2022/05/25 10:45:21;;;;;;;4.30;1.08;;;;;;;20.25;39.60;101332.59;6496579;23;20082;-79
2022/05/25 10:48:07;;;;;;;3.53;1.20;;;;;;;18.97;42.31;101339.72;6498505;22;20004;-79
2022/05/25 10:50:57;;;;;;;3.55;1.20;;;;;;;18.30;43.74;101343.94;6498671;23;20008;-78
2022/05/25 10:54:44;;;;;;;5.15;1.52;;;;;;;18.17;44.32;101333.81;6498071;23;20031;-79
2022/05/25 10:57:13;;;;;;;4.35;1.45;;;;;;;21.16;40.24;101325.78;6497930;23;20016;-79
2022/05/25 11:00:06;;;;;;;3.30;1.35;;;;;;;21.07;37.49;101335.03;6497779;23;20035;-79
2022/05/25 11:03:10;;;;;;;4.05;1.42;;;;;;;19.71;39.23;101334.94;6498055;23;20008;-79
2022/05/25 11:06:26;;;;;;;3.30;1.15;;;;;;;18.53;41.36;101337.78;6504087;23;20004;-79
2022/05/25 11:09:20;;;;;;;5.15;1.42;;;;;;;18.74;43.23;101339.66;6506224;23;20326;-78
2022/05/25 11:12:03;;;;;;;2.83;1.02;;;;;;;18.18;44.73;101340.81;6499002;23;20011;-78
2022/05/25 11:14:48;;;;;;;8.25;1.45;;;;;;;19.45;42.88;101336.03;6497755;23;20326;-79
2022/05/25 11:17:47;;;;;;;3.08;1.23;;;;;;;20.28;41.14;101335.13;6495951;23;20004;-78
2022/05/25 11:20:39;;;;;;;2.65;1.00;;;;;;;19.55;42.07;101333.84;6497021;23;20004;-77
2022/05/25 11:23:11;;;;;;;;;;;;;;;20.60;39.09;101330.16;6497916;23;20007;-79
2022/05/25 11:25:57;;;;;;;2.88;1.30;;;;;;;22.50;36.55;101329.59;6471026;23;19915;-81
2022/05/25 11:28:56;;;;;;;7.35;1.52;;;;;;;23.00;35.19;101329.53;6472658;23;20008;-80
2022/05/25 11:31:47;;;;;;;5.38;1.58;;;;;;;23.87;33.94;101320.97;6498559;23;20016;-78
2022/05/25 11:34:40;;;;;;;15.07;2.97;;;;;;;24.74;31.82;101324.50;6501920;23;20027;-79
2022/05/25 11:37:40;;;;;;;16.90;2.80;;;;;;;24.89;31.92;101312.88;6497480;23;20012;-79
2022/05/25 11:40:59;;;;;;;41.92;6.72;;;;;;;23.64;34.05;101312.53;6497196;23;20012;-79
2022/05/25 11:43:58;;;;;;;23.33;4.95;;;;;;;24.94;32.98;101310.75;6369535;23;20010;-79
2022/05/25 11:46:35;;;;;;;4.93;1.38;;;;;;;24.10;33.04;101318.72;6369565;23;20049;-79
2022/05/25 11:49:31;;;;;;;3.17;1.30;;;;;;;23.19;34.38;101305.44;6369481;23;20018;-79
2022/05/25 11:52:17;;;;;;;9.75;2.03;;;;;;;21.90;36.15;101326.59;6369421;23;20065;-79
2022/05/25 11:55:23;;;;;;;5.55;1.75;;;;;;;21.24;36.64;101304.22;6369436;23;20006;-80
2022/05/25 11:57:57;;;;;;;9.27;1.85;;;;;;;21.70;36.54;101315.16;6344487;23;20125;-78
2022/05/25 12:00:37;;;;;;;11.73;1.95;;;;;;;21.66;35.75;101300.38;6369573;23;20069;-77
2022/05/25 12:03:11;;;;;;;4.38;1.45;;;;;;;20.97;37.90;101307.25;6369127;23;20014;-78
2022/05/25 12:06:06;;;;;;;36.33;6.50;;;;;;;19.99;39.56;101325.81;6368999;23;20010;-78
2022/05/25 12:08:46;;;;;;;3.70;1.42;;;;;;;20.03;39.56;101315.06;6369483;23;20113;-77
2022/05/25 12:11:39;;;;;;;4.45;1.45;;;;;;;23.26;36.44;101304.13;6369074;23;20460;-80
2022/05/25 12:14:20;;;;;;;6.18;1.98;;;;;;;23.76;33.14;101313.59;6368907;23;20014;-79
2022/05/25 12:16:55;;;;;;;6.80;1.95;;;;;;;22.39;34.41;101318.69;6369692;23;20010;-79
2022/05/25 12:19:34;;;;;;;5.70;1.90;;;;;;;20.29;38.21;101306.88;6399215;23;20012;-76
2022/05/25 12:22:15;;;;;;;4.68;1.58;;;;;;;19.26;39.87;101312.97;6496733;23;20012;-78
2022/05/25 12:24:56;;;;;;;32.65;4.20;;;;;;;18.82;40.10;101317.34;6497519;23;20004;-79
2022/05/25 12:27:35;;;;;;;6.85;1.10;;;;;;;18.74;40.34;101322.91;6496070;23;20008;-79
2022/05/25 12:30:14;;;;;;;20.23;2.88;;;;;;;18.10;41.73;101327.03;6498045;23;20059;-80
2022/05/25 12:32:46;;;;;;;10.32;2.00;;;;;;;18.34;41.66;101335.00;6498051;23;20004;-78
2022/05/25 12:35:17;;;;;;;7.85;1.30;;;;;;;18.23;41.71;101338.88;6471152;23;20011;-79